This is the latest recevied weather packets stored in our database for station/object OH6DL-15. If no packets are shown the sender has not sent any weather packets the latest 10 day(s).
| Time | Temp. | Humidity | Pressure | Rain* | Wind** | Luminosity | Snow |
|---|---|---|---|---|---|---|---|
| 1777454283 | 5.56° C | 44% | 1023.3 hPa | 0 mm | - | - | - |
| 1777452303 | 5° C | 47% | 1023.2 hPa | 0 mm | - | - | - |
| 1777451763 | 5° C | 47% | 1023.3 hPa | 0 mm | - | - | - |
| 1777450144 | 3.89° C | 50% | 1023.7 hPa | 0 mm | - | - | - |
| 1777447623 | 3.89° C | 52% | 1023.8 hPa | 0 mm | - | - | - |
| 1777445643 | 2.78° C | 53% | 1024.1 hPa | 0 mm | - | - | - |
| 1777443484 | 3.33° C | 58% | 1024.2 hPa | 0 mm | - | - | - |
| 1777440424 | 1.67° C | 66% | 1024 hPa | 0 mm | - | - | - |
| 1777437903 | 0° C | 74% | 1024.1 hPa | 0 mm | - | - | - |
| 1777436824 | -0.56° C | 75% | 1024.2 hPa | 0 mm | - | - | - |
| 1777434844 | -1.11° C | 76% | 1023.7 hPa | 0 mm | - | - | - |
| 1777434435 | -1.67° C | 76% | 1023.9 hPa | 0 mm | - | - | - |
| 1777431604 | -1.67° C | 75% | 1023.7 hPa | 0 mm | - | - | - |
| 1777428543 | -1.11° C | 73% | 1023.2 hPa | 0 mm | - | - | - |
| 1777427643 | -1.11° C | 72% | 1023.3 hPa | 0 mm | - | - | - |
| 1777426564 | -1.11° C | 71% | 1023.2 hPa | 0 mm | - | - | - |
| 1777425483 | -0.56° C | 71% | 1023.3 hPa | 0 mm | - | - | - |
| 1777422423 | -0.56° C | 69% | 1022.9 hPa | 0 mm | - | - | - |
| 1777421344 | -0.56° C | 68% | 1022.9 hPa | 0 mm | - | - | - |
| 1777420804 | -0.56° C | 68% | 1022.7 hPa | 0 mm | - | - | - |
| 1777415358 | 1.11° C | 62% | 1022.4 hPa | 0 mm | - | - | - |
| 1777412703 | 1.67° C | 59% | 1022.2 hPa | 0 mm | - | - | - |
| 1777407616 | 1.67° C | 57% | 1022 hPa | 0 mm | - | - | - |
| 1777402443 | 2.22° C | 56% | 1021.6 hPa | 0 mm | - | - | - |
| 1777401904 | 2.22° C | 56% | 1021.5 hPa | 0 mm | - | - | - |
* Rain latest hour (hover to see other rain measurements)
** Current wind speed in m/s (hover to see current wind gust speed)